Time;durP1;ratioP1;P1;durP2;ratioP2;P2;SDS_P1;SDS_P2;PMS_P1;PMS_P2;Temp;Humidity;BMP_temperature;BMP_pressure;BME280_temperature;BME280_humidity;BME280_pressure;Samples;Min_cycle;Max_cycle;Signal;HPM_P1;HPM_P2
2022/07/25 00:02:26;;;;;;;4.72;3.00;;;;;;;11.76;81.73;99829.61;1718546;82;20980;-59
2022/07/25 00:04:52;;;;;;;3.85;2.70;;;;;;;11.72;81.77;99827.21;1747065;81;21598;-60
2022/07/25 00:07:19;;;;;;;5.47;3.00;;;;;;;11.64;81.75;99817.13;1734007;82;21074;-60
2022/07/25 00:09:46;;;;;;;3.77;2.33;;;;;;;11.56;81.83;99823.20;1751388;81;21577;-60
2022/07/25 00:12:12;;;;;;;3.20;2.67;;;;;;;11.48;81.85;99818.34;1731322;82;21792;-60
2022/07/25 00:14:39;;;;;;;2.57;2.37;;;;;;;11.39;81.88;99815.72;1736741;82;20993;-60
2022/07/25 00:17:05;;;;;;;4.63;3.30;;;;;;;11.34;82.03;99820.35;1738711;81;21022;-60
2022/07/25 00:19:32;;;;;;;5.05;3.02;;;;;;;11.30;82.13;99821.41;1738396;81;22143;-59
2022/07/25 00:21:59;;;;;;;4.53;3.03;;;;;;;11.32;82.38;99818.27;1735331;82;21551;-60
2022/07/25 00:24:25;;;;;;;4.83;3.17;;;;;;;11.34;82.50;99817.74;1726991;82;21208;-60
2022/07/25 00:26:52;;;;;;;5.00;3.20;;;;;;;11.34;82.57;99815.12;1752137;81;20984;-60
2022/07/25 00:29:19;;;;;;;2.52;2.33;;;;;;;11.34;82.72;99809.89;1728550;81;21412;-61
2022/07/25 00:31:46;;;;;;;3.30;3.00;;;;;;;11.34;82.61;99812.52;1735794;82;20991;-60
2022/07/25 00:34:13;;;;;;;5.90;2.50;;;;;;;11.27;82.53;99815.02;1738273;82;21431;-60
2022/07/25 00:36:39;;;;;;;4.50;2.90;;;;;;;11.22;82.62;99815.70;1736439;82;21031;-60
2022/07/25 00:39:06;;;;;;;3.37;2.70;;;;;;;11.17;82.72;99803.31;1738496;82;21084;-60
2022/07/25 00:41:33;;;;;;;3.87;2.40;;;;;;;11.16;82.78;99805.55;1725628;81;21036;-59
2022/07/25 00:43:59;;;;;;;4.20;3.22;;;;;;;11.14;82.82;99810.00;1715330;82;21580;-60
2022/07/25 00:46:26;;;;;;;5.35;2.45;;;;;;;11.10;82.88;99804.55;1732128;82;21791;-60
2022/07/25 00:48:53;;;;;;;2.50;2.27;;;;;;;11.08;82.93;99800.69;1739314;82;21044;-60
2022/07/25 00:51:20;;;;;;;4.50;2.27;;;;;;;11.05;82.92;99792.16;1738396;81;21607;-60
2022/07/25 00:53:47;;;;;;;5.90;1.92;;;;;;;10.99;82.93;99798.52;1735873;82;21579;-60
2022/07/25 00:56:16;;;;;;;4.72;2.90;;;;;;;10.96;83.00;99791.67;1748809;80;21065;-59
2022/07/25 00:58:44;;;;;;;3.55;2.30;;;;;;;10.96;83.18;99796.90;1755508;80;21067;-60
2022/07/25 01:01:11;;;;;;;3.45;3.10;;;;;;;10.96;83.21;99791.67;1722776;82;21027;-60
2022/07/25 01:03:37;;;;;;;3.37;2.40;;;;;;;10.96;83.23;99796.90;1756784;80;21107;-60
2022/07/25 01:06:05;;;;;;;6.97;3.13;;;;;;;10.97;83.30;99797.73;1743117;81;21666;-60
2022/07/25 01:08:32;;;;;;;3.55;2.30;;;;;;;10.98;83.44;99793.77;1730350;81;21564;-60
2022/07/25 01:10:59;;;;;;;2.90;2.13;;;;;;;11.01;83.50;99794.52;1737155;81;22246;-60
2022/07/25 01:13:25;;;;;;;2.42;2.12;;;;;;;11.01;83.40;99787.98;1722036;81;21038;-60
2022/07/25 01:15:52;;;;;;;2.80;2.40;;;;;;;11.00;83.41;99796.75;1742386;81;20952;-60
2022/07/25 01:18:19;;;;;;;2.98;2.45;;;;;;;10.96;83.52;99790.83;1742348;81;21731;-60
2022/07/25 01:20:46;;;;;;;3.37;2.40;;;;;;;10.96;83.60;99787.75;1741691;81;21053;-60
2022/07/25 01:23:13;;;;;;;;;;;;;;;10.97;83.69;99782.06;1751676;81;21462;-60
2022/07/25 01:25:39;;;;;;;2.83;2.20;;;;;;;10.95;83.77;99773.02;1740614;81;20133;-60
2022/07/25 01:28:06;;;;;;;5.00;2.47;;;;;;;10.91;83.65;99775.83;1737770;81;21048;-60
2022/07/25 01:30:33;;;;;;;6.05;2.40;;;;;;;10.86;83.68;99779.95;1740906;81;20979;-60
2022/07/25 01:33:00;;;;;;;5.50;2.30;;;;;;;10.82;83.59;99775.81;1745406;81;21511;-60
2022/07/25 01:35:27;;;;;;;2.10;1.90;;;;;;;10.77;83.68;99775.18;1746680;80;21080;-60
2022/07/25 01:37:53;;;;;;;5.97;2.30;;;;;;;10.73;83.95;99773.64;1744512;81;21339;-60
2022/07/25 01:40:20;;;;;;;2.37;2.10;;;;;;;10.73;83.95;99773.64;1739848;81;21333;-60
2022/07/25 01:42:47;;;;;;;3.87;2.58;;;;;;;10.79;84.15;99783.80;1746674;81;21007;-60
2022/07/25 01:45:14;;;;;;;3.77;2.17;;;;;;;10.81;84.04;99776.74;1741350;81;21007;-60
2022/07/25 01:47:40;;;;;;;3.50;2.08;;;;;;;10.82;84.00;99777.12;1750893;80;22402;-60
2022/07/25 01:50:09;;;;;;;2.23;2.03;;;;;;;10.84;84.10;99776.59;1748879;81;21054;-60
2022/07/25 01:52:38;;;;;;;3.50;2.20;;;;;;;10.86;84.19;99774.73;1742615;81;20893;-60
2022/07/25 01:55:06;;;;;;;3.00;2.60;;;;;;;10.89;84.21;99779.81;1749338;81;21077;-60
2022/07/25 01:57:33;;;;;;;3.12;2.12;;;;;;;10.88;84.22;99780.73;1751098;80;21047;-60
2022/07/25 02:00:00;;;;;;;3.50;2.00;;;;;;;10.86;84.24;99769.52;1749374;81;21089;-60
2022/07/25 02:02:26;;;;;;;3.30;2.37;;;;;;;10.81;84.15;99774.13;1741915;81;21489;-60
2022/07/25 02:04:54;;;;;;;3.90;2.30;;;;;;;10.75;84.13;99774.39;1747711;81;20956;-60
2022/07/25 02:07:20;;;;;;;3.58;2.25;;;;;;;10.70;84.13;99768.56;1747913;80;21016;-60
2022/07/25 02:09:47;;;;;;;2.50;2.08;;;;;;;10.64;84.19;99771.44;1752665;81;21023;-60
2022/07/25 02:12:14;;;;;;;5.33;2.80;;;;;;;10.52;84.39;99763.27;1739157;80;21130;-60
2022/07/25 02:14:41;;;;;;;2.10;1.70;;;;;;;10.52;84.39;99763.27;1740925;80;21418;-60
2022/07/25 02:17:08;;;;;;;2.97;2.07;;;;;;;10.53;84.61;99769.36;1743275;80;21078;-60
2022/07/25 02:19:35;;;;;;;5.00;2.30;;;;;;;10.53;84.71;99764.13;1747293;81;21416;-60
2022/07/25 02:22:03;;;;;;;3.27;2.00;;;;;;;10.58;84.88;99761.29;1739802;81;21573;-60
2022/07/25 02:24:31;;;;;;;4.58;2.17;;;;;;;10.61;84.85;99765.06;1742238;81;21094;-60
2022/07/25 02:26:57;;;;;;;;;;;;;;;10.64;84.85;99764.48;1752267;81;21067;-60
2022/07/25 02:29:24;;;;;;;3.05;2.10;;;;;;;10.67;84.95;99768.69;1749008;81;20225;-60
2022/07/25 02:31:51;;;;;;;4.90;2.10;;;;;;;10.71;84.94;99765.03;1746349;80;21042;-60
2022/07/25 02:34:18;;;;;;;2.90;2.15;;;;;;;10.71;84.97;99741.52;1747446;81;20924;-60
2022/07/25 02:36:45;;;;;;;3.40;2.08;;;;;;;10.78;85.00;99749.44;1738851;81;21157;-60
2022/07/25 02:39:12;;;;;;;8.23;2.67;;;;;;;10.84;85.12;99745.25;1749355;81;21012;-59
2022/07/25 02:41:39;;;;;;;2.50;2.17;;;;;;;10.94;85.24;99746.95;1723391;81;21099;-60
2022/07/25 02:44:06;;;;;;;4.90;2.13;;;;;;;11.09;85.57;99749.27;1738867;80;21100;-60
2022/07/25 02:46:32;;;;;;;;;;;;;;;11.22;85.43;99750.36;1748247;80;21003;-61
2022/07/25 02:48:59;;;;;;;3.02;1.77;;;;;;;11.31;85.17;99749.90;1729347;80;22028;-60
2022/07/25 02:51:26;;;;;;;3.35;2.17;;;;;;;11.31;85.17;99749.90;1706595;83;20946;-60
2022/07/25 02:53:53;;;;;;;4.57;2.60;;;;;;;11.36;85.18;99751.83;1720598;82;20919;-60
2022/07/25 02:56:19;;;;;;;4.73;2.63;;;;;;;11.45;85.25;99756.21;1730348;82;20997;-60
2022/07/25 02:58:46;;;;;;;3.08;1.90;;;;;;;11.51;85.26;99745.44;1718713;81;21356;-60
2022/07/25 03:01:13;;;;;;;4.87;2.20;;;;;;;11.62;85.35;99747.05;1719963;82;21300;-60
2022/07/25 03:03:39;;;;;;;2.57;2.00;;;;;;;11.79;85.55;99744.43;1722225;82;21895;-60
2022/07/25 03:06:06;;;;;;;3.17;1.75;;;;;;;12.00;85.69;99745.56;1718235;82;21571;-60
2022/07/25 03:08:33;;;;;;;2.22;1.95;;;;;;;12.20;85.60;99744.03;1725139;81;21100;-60
2022/07/25 03:11:00;;;;;;;4.77;1.97;;;;;;;12.39;85.68;99752.22;1722548;81;20949;-61
2022/07/25 03:13:26;;;;;;;3.47;2.07;;;;;;;12.59;85.81;99751.97;1726471;82;21836;-61
2022/07/25 03:15:53;;;;;;;6.23;2.30;;;;;;;12.89;86.08;99748.58;1716703;82;20924;-60
2022/07/25 03:18:19;;;;;;;5.33;1.80;;;;;;;13.39;86.53;99752.73;1715022;82;21122;-60
2022/07/25 03:20:46;;;;;;;4.70;2.00;;;;;;;14.09;86.62;99751.14;1723608;82;21050;-60
2022/07/25 03:23:13;;;;;;;2.67;1.57;;;;;;;14.71;85.81;99752.59;1721910;82;21094;-60
2022/07/25 03:25:39;;;;;;;7.58;1.90;;;;;;;15.18;85.25;99752.13;1720450;82;21582;-60
2022/07/25 03:28:06;;;;;;;5.20;1.80;;;;;;;15.54;84.41;99751.92;1720096;82;21050;-60
2022/07/25 03:30:33;;;;;;;7.58;2.17;;;;;;;15.39;83.51;99752.48;1720565;82;21614;-60
2022/07/25 03:32:59;;;;;;;8.83;2.40;;;;;;;15.15;83.45;99748.84;1714280;81;21065;-60
2022/07/25 03:35:26;;;;;;;5.70;2.50;;;;;;;14.94;83.65;99751.09;1717211;82;21019;-60
2022/07/25 03:37:53;;;;;;;8.53;2.50;;;;;;;14.77;83.89;99754.81;1728168;82;21045;-60
2022/07/25 03:40:20;;;;;;;2.98;2.33;;;;;;;14.65;84.08;99748.56;1723376;82;21094;-60
2022/07/25 03:42:47;;;;;;;3.90;2.30;;;;;;;14.54;84.16;99745.30;1723662;82;21056;-60
2022/07/25 03:45:14;;;;;;;3.62;2.10;;;;;;;14.49;84.40;99742.08;1717223;82;21298;-60
2022/07/25 03:47:40;;;;;;;7.10;2.27;;;;;;;14.49;84.56;99738.14;1723899;82;20997;-60
2022/07/25 03:50:09;;;;;;;3.75;2.12;;;;;;;14.53;84.83;99737.02;1731245;81;21184;-60
2022/07/25 03:52:37;;;;;;;6.28;2.40;;;;;;;14.61;84.78;99738.34;1728140;82;21490;-60
2022/07/25 03:55:07;;;;;;;9.55;3.12;;;;;;;14.73;85.09;99741.48;1728945;82;21690;-60
2022/07/25 03:57:34;;;;;;;5.22;2.60;;;;;;;14.87;85.09;99732.27;1730429;82;21026;-60
2022/07/25 04:00:01;;;;;;;4.12;2.55;;;;;;;14.99;85.06;99731.45;1731154;81;22246;-60
2022/07/25 04:02:28;;;;;;;;;;;;;;;15.12;85.06;99725.38;1735159;82;21101;-60
2022/07/25 04:04:54;;;;;;;6.60;2.53;;;;;;;15.24;85.15;99721.95;1731080;82;20182;-60
2022/07/25 04:07:21;;;;;;;3.58;2.25;;;;;;;15.32;84.98;99724.92;1726341;82;21072;-60
2022/07/25 04:09:47;;;;;;;3.65;2.20;;;;;;;15.41;84.98;99730.87;1729580;82;21572;-60
2022/07/25 04:12:14;;;;;;;4.37;2.67;;;;;;;15.51;84.83;99738.97;1732266;81;21030;-60
2022/07/25 04:14:41;;;;;;;8.00;2.25;;;;;;;15.57;84.66;99739.03;1734906;81;21696;-60
2022/07/25 04:17:08;;;;;;;4.28;2.33;;;;;;;15.61;84.59;99737.89;1727457;81;20944;-60
2022/07/25 04:19:34;;;;;;;7.08;2.60;;;;;;;15.64;84.57;99735.05;1729927;81;21139;-60
2022/07/25 04:22:01;;;;;;;3.47;2.43;;;;;;;15.68;84.50;99729.96;1730671;81;21018;-60
2022/07/25 04:24:28;;;;;;;6.17;2.50;;;;;;;15.70;84.36;99725.45;1732640;81;21122;-61
2022/07/25 04:26:55;;;;;;;3.80;2.12;;;;;;;15.57;84.22;99707.45;1725457;81;21579;-60
2022/07/25 04:29:21;;;;;;;6.80;2.30;;;;;;;15.71;84.31;99728.47;1728189;81;21102;-61
2022/07/25 04:31:48;;;;;;;3.67;2.62;;;;;;;15.75;84.34;99727.30;1729384;82;21061;-60
2022/07/25 04:34:15;;;;;;;6.00;2.42;;;;;;;15.84;84.48;99728.45;1728070;82;21037;-60
2022/07/25 04:36:41;;;;;;;7.20;2.40;;;;;;;15.95;84.42;99722.45;1732623;81;21560;-60
2022/07/25 04:39:08;;;;;;;8.90;3.02;;;;;;;16.04;84.28;99724.43;1729834;81;21883;-60
2022/07/25 04:41:35;;;;;;;6.20;2.90;;;;;;;16.17;84.36;99719.99;1728223;81;21515;-61
2022/07/25 04:44:01;;;;;;;3.70;2.40;;;;;;;16.32;84.54;99716.26;1729222;81;21496;-60
2022/07/25 04:46:28;;;;;;;5.37;2.40;;;;;;;16.51;84.53;99716.27;1727005;82;20971;-60
2022/07/25 04:48:55;;;;;;;4.55;2.20;;;;;;;16.65;84.39;99712.16;1733075;82;21847;-61
2022/07/25 04:51:22;;;;;;;3.20;2.15;;;;;;;16.80;84.16;99712.86;1732320;81;21311;-60
2022/07/25 04:53:49;;;;;;;3.72;2.35;;;;;;;17.00;84.38;99710.10;1732339;82;21535;-61
2022/07/25 04:56:15;;;;;;;5.92;1.98;;;;;;;17.30;84.29;99703.47;1731899;81;21000;-60
2022/07/25 04:58:42;;;;;;;6.20;1.90;;;;;;;17.58;84.13;99696.44;1731075;82;20915;-60
2022/07/25 05:01:09;;;;;;;5.37;2.17;;;;;;;18.80;85.82;99694.85;1723165;82;21611;-61
2022/07/25 05:03:36;;;;;;;2.35;1.82;;;;;;;20.50;85.76;99688.24;1729088;82;21524;-61
2022/07/25 05:06:02;;;;;;;3.33;2.17;;;;;;;21.97;84.35;99684.02;1728931;81;20950;-61
2022/07/25 05:08:29;;;;;;;2.58;1.70;;;;;;;23.27;83.17;99680.23;1729997;82;21018;-62
2022/07/25 05:10:56;;;;;;;4.15;1.55;;;;;;;24.32;82.21;99670.66;1732783;82;20982;-62
2022/07/25 05:13:22;;;;;;;;;;;;;;;25.30;80.74;99674.50;1735309;82;20974;-62
2022/07/25 05:15:49;;;;;;;2.30;1.57;;;;;;;25.94;79.13;99674.56;1730525;81;21862;-62
2022/07/25 05:18:15;;;;;;;;;;;;;;;26.45;78.60;99674.98;1735540;81;20963;-62
2022/07/25 05:20:42;;;;;;;4.00;1.55;;;;;;;26.91;77.05;99673.17;1733380;82;20207;-62
2022/07/25 05:23:09;;;;;;;2.00;1.25;;;;;;;27.43;77.62;99676.44;1728911;82;21075;-62
2022/07/25 05:25:35;;;;;;;4.85;1.70;;;;;;;28.18;77.25;99673.28;1732352;82;21536;-62
2022/07/25 05:28:02;;;;;;;3.37;1.50;;;;;;;28.23;75.20;99668.19;1731908;82;21119;-62
2022/07/25 05:30:28;;;;;;;6.03;1.52;;;;;;;27.82;73.84;99674.05;1733792;81;21662;-62
2022/07/25 05:32:55;;;;;;;4.70;1.50;;;;;;;27.47;73.64;99676.08;1730870;81;21011;-62
2022/07/25 05:35:22;;;;;;;4.35;1.27;;;;;;;27.80;74.45;99676.08;1729744;81;21022;-62
2022/07/25 05:37:48;;;;;;;3.80;1.45;;;;;;;28.38;73.50;99663.30;1726322;82;21089;-62
2022/07/25 05:40:15;;;;;;;9.18;1.57;;;;;;;28.87;72.78;99658.55;1726093;82;21603;-63
2022/07/25 05:42:42;;;;;;;8.40;1.47;;;;;;;29.34;71.40;99657.94;1730499;81;20962;-63
2022/07/25 05:45:10;;;;;;;3.08;1.30;;;;;;;29.50;70.26;99656.81;1727754;82;21033;-63
2022/07/25 05:47:37;;;;;;;6.87;1.62;;;;;;;29.80;69.99;99648.52;1730275;81;21071;-62
2022/07/25 05:50:05;;;;;;;1.60;0.93;;;;;;;30.50;69.71;99652.77;1731134;82;21059;-62
2022/07/25 05:52:32;;;;;;;2.83;1.30;;;;;;;30.89;68.64;99656.59;1730685;82;21545;-64
2022/07/25 05:54:59;;;;;;;19.55;2.83;;;;;;;30.80;67.01;99652.42;1732370;81;21031;-64
2022/07/25 05:57:25;;;;;;;5.12;1.37;;;;;;;30.71;66.31;99649.06;1727358;81;21589;-64
2022/07/25 05:59:52;;;;;;;8.95;1.15;;;;;;;30.70;65.96;99651.98;1731845;82;21011;-64
2022/07/25 06:02:19;;;;;;;1.40;1.00;;;;;;;30.87;65.22;99650.57;1727401;81;21591;-64
2022/07/25 06:04:46;;;;;;;6.90;1.30;;;;;;;30.97;64.00;99653.67;1724966;82;21120;-64
2022/07/25 06:07:12;;;;;;;4.40;1.50;;;;;;;31.14;63.70;99649.22;1724713;82;20962;-63
2022/07/25 06:09:39;;;;;;;2.55;1.12;;;;;;;31.28;63.36;99650.86;1723608;82;21054;-64
2022/07/25 06:12:06;;;;;;;3.22;1.30;;;;;;;31.68;62.53;99644.59;1726632;81;21077;-64
2022/07/25 06:14:33;;;;;;;1.92;1.10;;;;;;;31.72;61.63;99639.92;1722756;81;21045;-65
2022/07/25 06:17:02;;;;;;;2.27;1.25;;;;;;;31.83;61.37;99639.25;1729089;82;22256;-64
2022/07/25 06:19:29;;;;;;;5.08;1.20;;;;;;;31.67;60.26;99639.72;1728186;81;21622;-65
2022/07/25 06:21:56;;;;;;;1.65;1.15;;;;;;;31.67;59.57;99634.32;1729941;82;21547;-62
2022/07/25 06:24:22;;;;;;;4.10;1.15;;;;;;;31.44;58.06;99638.31;1724747;82;20931;-62
2022/07/25 06:26:49;;;;;;;3.05;1.12;;;;;;;31.20;57.95;99630.84;1724723;82;21070;-62
2022/07/25 06:29:16;;;;;;;2.40;1.30;;;;;;;31.09;57.69;99623.38;1726553;82;21607;-60
2022/07/25 06:31:42;;;;;;;1.87;1.30;;;;;;;30.85;57.04;99618.12;1728401;82;21011;-61
2022/07/25 06:34:26;;;;;;;4.25;1.52;;;;;;;31.16;56.91;99613.44;1853957;76;21942;-62
2022/07/25 06:36:53;;;;;;;2.10;1.37;;;;;;;31.55;56.57;99609.04;1819255;77;21734;-62
2022/07/25 06:39:20;;;;;;;2.98;1.30;;;;;;;31.80;56.23;99609.98;1820247;78;21009;-62
2022/07/25 06:41:47;;;;;;;2.65;1.30;;;;;;;31.86;55.26;99609.13;1792378;78;21010;-61
2022/07/25 06:44:13;;;;;;;4.15;1.20;;;;;;;31.67;54.02;99601.94;1816761;77;20913;-61
2022/07/25 06:46:40;;;;;;;3.70;1.17;;;;;;;31.36;53.97;99605.34;1822694;77;20975;-61
2022/07/25 06:49:08;;;;;;;8.25;2.08;;;;;;;31.36;53.43;99600.77;1811493;77;21030;-61
2022/07/25 06:51:34;;;;;;;3.50;1.10;;;;;;;31.34;53.00;99608.23;1817053;77;21755;-61
2022/07/25 06:54:01;;;;;;;5.15;2.08;;;;;;;31.19;52.71;99602.23;1815030;77;20900;-63
2022/07/25 06:56:30;;;;;;;2.55;1.55;;;;;;;31.35;52.84;99607.19;1814994;77;21007;-63
2022/07/25 06:58:58;;;;;;;2.15;1.12;;;;;;;31.35;52.21;99600.97;1822264;77;20944;-64
2022/07/25 07:01:24;;;;;;;4.12;1.27;;;;;;;31.57;52.01;99598.88;1816753;78;20999;-64
2022/07/25 07:03:51;;;;;;;2.60;1.30;;;;;;;31.57;51.31;99598.88;1821644;77;21238;-63
2022/07/25 07:06:18;;;;;;;4.78;1.37;;;;;;;31.33;50.67;99601.16;1821774;77;21078;-63
2022/07/25 07:08:44;;;;;;;4.47;1.30;;;;;;;31.07;50.43;99598.52;1818084;77;21049;-64
2022/07/25 07:11:14;;;;;;;3.02;1.25;;;;;;;31.31;50.63;99602.41;1817562;78;21730;-63
2022/07/25 07:13:41;;;;;;;1.82;1.20;;;;;;;31.25;49.90;99595.98;1814263;77;20892;-64
2022/07/25 07:16:08;;;;;;;6.72;1.57;;;;;;;31.15;49.66;99590.22;1820312;78;21705;-63
2022/07/25 07:18:35;;;;;;;2.52;1.50;;;;;;;31.16;49.62;99593.21;1821081;77;20994;-64
2022/07/25 07:21:04;;;;;;;2.77;1.45;;;;;;;31.41;49.30;99594.23;1814600;78;20999;-64
2022/07/25 07:23:31;;;;;;;4.72;1.40;;;;;;;31.47;48.73;99589.03;1816754;78;22465;-64
2022/07/25 07:25:58;;;;;;;1.80;1.30;;;;;;;31.22;48.40;99591.84;1819833;77;20989;-63
2022/07/25 07:28:24;;;;;;;1.90;1.17;;;;;;;30.80;48.00;99579.64;1820615;78;21628;-63
2022/07/25 07:30:51;;;;;;;3.90;1.92;;;;;;;30.80;48.00;99579.64;1819097;77;21020;-63
2022/07/25 07:33:18;;;;;;;6.35;1.70;;;;;;;30.48;47.94;99582.09;1797332;77;20941;-64
2022/07/25 07:35:44;;;;;;;6.03;1.75;;;;;;;30.42;47.93;99580.22;1773677;79;21027;-63
2022/07/25 07:38:11;;;;;;;4.62;1.80;;;;;;;30.24;47.84;99569.20;1769733;78;21067;-62
2022/07/25 07:40:38;;;;;;;3.10;1.72;;;;;;;30.08;47.76;99573.91;1771608;79;21446;-62
2022/07/25 07:43:05;;;;;;;5.05;1.87;;;;;;;29.83;47.52;99569.58;1773325;79;21060;-62
2022/07/25 07:45:32;;;;;;;8.15;2.17;;;;;;;29.57;47.49;99564.86;1771523;79;21570;-62
2022/07/25 07:47:59;;;;;;;2.80;1.62;;;;;;;29.40;47.61;99572.95;1774538;79;21024;-62
2022/07/25 07:50:29;;;;;;;3.47;2.22;;;;;;;29.30;47.59;99567.11;1764043;79;20894;-63
2022/07/25 07:52:57;;;;;;;4.03;2.33;;;;;;;29.11;47.61;99572.16;1770726;79;21099;-63
2022/07/25 07:55:43;;;;;;;4.22;2.22;;;;;;;29.05;47.39;99567.57;1782416;79;21072;-62
2022/07/25 07:58:16;;;;;;;3.52;2.30;;;;;;;28.98;47.46;99572.02;1741105;79;21526;-62
2022/07/25 08:00:53;;;;;;;6.37;2.25;;;;;;;28.80;47.15;99564.45;1768545;79;21071;-62
2022/07/25 08:03:21;;;;;;;1.92;1.72;;;;;;;28.72;47.13;99564.07;1763800;79;21012;-63
2022/07/25 08:05:50;;;;;;;9.70;2.20;;;;;;;28.53;47.13;99564.21;1771837;79;21090;-62
2022/07/25 08:08:19;;;;;;;2.75;2.30;;;;;;;28.36;47.04;99559.27;1769539;79;20956;-62
2022/07/25 08:10:48;;;;;;;4.35;2.47;;;;;;;28.21;47.22;99557.48;1767742;79;21003;-64
2022/07/25 08:13:20;;;;;;;3.95;3.02;;;;;;;28.16;47.57;99562.58;1760023;79;22148;-63
2022/07/25 08:15:50;;;;;;;4.72;2.45;;;;;;;28.21;47.50;99570.90;1764511;79;20961;-63
2022/07/25 08:18:18;;;;;;;4.72;2.45;;;;;;;28.14;47.54;99572.67;1766579;79;21057;-62
2022/07/25 08:20:47;;;;;;;3.17;2.37;;;;;;;28.12;47.53;99572.05;1764391;79;20985;-63
2022/07/25 08:23:15;;;;;;;3.35;2.10;;;;;;;28.07;47.26;99570.44;1764460;79;21001;-63
2022/07/25 08:25:43;;;;;;;7.50;2.58;;;;;;;28.00;47.74;99565.49;1760687;79;20997;-62
2022/07/25 08:28:12;;;;;;;5.45;2.47;;;;;;;28.10;47.37;99562.83;1726944;79;20996;-63
2022/07/25 08:30:40;;;;;;;5.28;2.60;;;;;;;28.17;47.80;99561.55;1757766;79;21708;-63
2022/07/25 08:33:12;;;;;;;4.72;2.42;;;;;;;28.20;47.37;99559.00;1775274;76;20927;-63
2022/07/25 08:35:40;;;;;;;4.15;2.50;;;;;;;27.98;47.21;99554.11;1819688;77;21518;-63
2022/07/25 08:38:10;;;;;;;6.83;2.70;;;;;;;27.85;47.52;99562.85;1803343;77;21475;-63
2022/07/25 08:40:35;;;;;;;12.65;3.55;;;;;;;27.92;47.53;99557.55;1814999;77;20947;-63
2022/07/25 08:43:04;;;;;;;4.58;3.00;;;;;;;27.97;47.45;99552.45;1817353;77;21437;-62
2022/07/25 08:45:32;;;;;;;3.35;2.67;;;;;;;28.02;47.45;99547.36;1819751;77;21063;-62
2022/07/25 08:47:59;;;;;;;4.70;2.90;;;;;;;28.02;47.28;99550.05;1809883;77;21031;-63
2022/07/25 08:50:28;;;;;;;4.30;2.40;;;;;;;28.07;47.48;99540.92;1820863;77;21053;-62
2022/07/25 08:52:56;;;;;;;5.87;3.00;;;;;;;28.19;47.45;99538.04;1821037;77;21585;-63
2022/07/25 08:55:24;;;;;;;5.22;2.27;;;;;;;28.18;47.12;99537.73;1814439;78;21109;-63
2022/07/25 08:59:03;;;;;;;4.30;2.73;;;;;;;27.99;46.89;99545.06;1844871;76;22184;-62
2022/07/25 09:01:31;;;;;;;6.78;2.22;;;;;;;27.88;47.00;99547.20;1816214;78;20947;-62
2022/07/25 09:03:57;;;;;;;3.72;2.42;;;;;;;27.87;47.20;99544.21;1825417;78;21003;-62
2022/07/25 09:06:24;;;;;;;;;;;;;;;27.98;47.23;99548.26;1833300;78;21056;-61
2022/07/25 09:08:58;;;;;;;;;;;;;;;28.07;46.78;99537.72;1831770;78;20190;-62
2022/07/25 09:11:34;;;;;;;8.13;2.67;;;;;;;27.97;46.96;99539.86;1808746;78;20173;-63
2022/07/25 09:14:08;;;;;;;5.05;2.30;;;;;;;27.92;46.71;99531.55;1814694;78;21000;-63
2022/07/25 09:16:40;;;;;;;6.65;2.35;;;;;;;27.88;46.93;99532.97;1823591;78;21431;-63
2022/07/25 09:19:16;;;;;;;11.43;2.87;;;;;;;27.95;46.91;99538.39;1813884;78;21004;-61
2022/07/25 09:21:45;;;;;;;6.70;2.92;;;;;;;27.87;46.81;99540.19;1812482;78;20994;-63
2022/07/25 09:24:16;;;;;;;11.95;3.60;;;;;;;27.79;46.93;99537.61;1810677;78;21014;-63
2022/07/25 09:26:50;;;;;;;23.83;9.43;;;;;;;27.86;47.09;99533.14;1813265;78;20993;-63
2022/07/25 09:29:32;;;;;;;7.30;2.98;;;;;;;28.01;47.22;99534.98;1811802;78;21750;-61
2022/07/25 09:32:01;;;;;;;7.87;2.55;;;;;;;28.09;47.01;99533.00;1812914;78;21013;-61
2022/07/25 09:34:36;;;;;;;4.53;2.58;;;;;;;28.15;47.06;99531.41;1814662;78;22258;-61
2022/07/25 09:37:11;;;;;;;4.37;2.65;;;;;;;28.18;46.85;99533.70;1809078;78;21013;-63
2022/07/25 09:39:48;;;;;;;8.65;2.90;;;;;;;28.16;46.95;99530.38;1814362;78;21016;-62
2022/07/25 09:42:35;;;;;;;5.05;2.30;;;;;;;28.10;46.86;99529.28;1804239;78;21027;-62
2022/07/25 09:45:14;;;;;;;7.05;2.72;;;;;;;28.20;46.86;99527.61;1833019;78;20937;-61
2022/07/25 09:47:53;;;;;;;2.87;2.67;;;;;;;28.22;46.81;99530.12;1810212;78;21091;-61
2022/07/25 09:50:23;;;;;;;4.10;2.85;;;;;;;28.19;46.61;99521.94;1817912;78;20989;-60
2022/07/25 09:52:53;;;;;;;2.85;2.60;;;;;;;28.20;46.54;99515.53;1820974;78;21047;-60
2022/07/25 09:55:21;;;;;;;7.50;3.92;;;;;;;28.13;46.51;99513.31;1812873;77;21073;-60
2022/07/25 09:57:51;;;;;;;11.03;2.62;;;;;;;28.15;46.71;99511.27;1804805;78;21826;-61
2022/07/25 10:00:25;;;;;;;6.00;2.70;;;;;;;28.19;46.35;99513.88;1805020;78;21503;-61
2022/07/25 10:03:13;;;;;;;6.00;3.10;;;;;;;28.18;46.48;99514.91;1811570;78;21064;-61
2022/07/25 10:05:55;;;;;;;3.87;2.70;;;;;;;28.24;46.35;99510.12;1821746;78;20934;-61
2022/07/25 10:08:23;;;;;;;3.98;2.77;;;;;;;28.22;46.10;99504.09;1766179;80;21262;-61
2022/07/25 10:10:51;;;;;;;4.37;2.75;;;;;;;28.20;46.20;99504.80;1763513;81;20928;-61
2022/07/25 10:13:31;;;;;;;3.55;2.77;;;;;;;28.16;45.82;99500.84;1766502;80;20993;-61
2022/07/25 10:15:58;;;;;;;3.40;2.50;;;;;;;28.19;46.20;99495.09;1759383;80;20965;-64
2022/07/25 10:18:26;;;;;;;;;;;;;;;28.31;46.02;99498.91;1764420;81;21107;-62
2022/07/25 10:21:09;;;;;;;4.60;2.87;;;;;;;28.33;45.83;99491.50;1756986;81;21074;-62
2022/07/25 10:23:36;;;;;;;4.20;2.52;;;;;;;28.38;46.10;99494.14;1757201;80;20980;-62
2022/07/25 10:26:14;;;;;;;;;;;;;;;28.42;45.90;99492.70;1751290;81;21079;-62
2022/07/25 10:28:49;;;;;;;5.37;2.40;;;;;;;28.41;45.92;99495.91;1764623;81;20105;-62
2022/07/25 10:31:30;;;;;;;7.78;2.83;;;;;;;28.53;45.94;99501.61;1767940;80;20996;-62
2022/07/25 10:33:58;;;;;;;6.92;2.90;;;;;;;28.63;45.89;99494.06;1763504;80;21106;-62
2022/07/25 10:36:32;;;;;;;5.97;3.22;;;;;;;28.64;45.88;99489.52;1764288;81;20967;-62
2022/07/25 10:39:01;;;;;;;3.20;2.50;;;;;;;28.68;45.68;99489.42;1751165;81;21823;-62
2022/07/25 10:41:29;;;;;;;5.33;2.50;;;;;;;28.52;45.36;99486.53;1752927;79;21008;-61
2022/07/25 10:43:59;;;;;;;5.75;2.90;;;;;;;28.45;45.67;99486.98;1767176;81;21190;-61
2022/07/25 10:46:29;;;;;;;6.25;2.95;;;;;;;28.50;45.74;99483.20;1809255;78;21039;-61
2022/07/25 10:48:59;;;;;;;5.40;2.70;;;;;;;28.62;45.73;99481.64;1804231;78;21519;-61
2022/07/25 10:51:36;;;;;;;5.30;2.90;;;;;;;28.61;45.72;99481.84;1808945;78;20941;-62
2022/07/25 10:54:13;;;;;;;;;;;;;;;28.59;45.45;99473.97;1802139;78;20912;-61
2022/07/25 10:56:54;;;;;;;7.72;2.40;;;;;;;28.53;45.25;99470.73;1805554;78;20146;-62
2022/07/25 10:59:30;;;;;;;3.35;2.85;;;;;;;28.61;45.58;99467.90;1804204;78;21581;-62
2022/07/25 11:01:58;;;;;;;4.45;2.72;;;;;;;28.60;45.26;99466.77;1806674;78;20947;-60
2022/07/25 11:04:25;;;;;;;9.30;3.20;;;;;;;28.63;45.66;99455.62;1794709;78;21505;-60
2022/07/25 11:06:52;;;;;;;18.37;3.40;;;;;;;28.71;44.89;99458.17;1807866;78;21040;-60
2022/07/25 11:09:27;;;;;;;3.12;2.83;;;;;;;28.53;44.89;99455.95;1807709;78;21523;-60
2022/07/25 11:11:57;;;;;;;6.55;3.15;;;;;;;28.50;44.94;99453.67;1792268;78;21952;-60
2022/07/25 11:14:36;;;;;;;5.22;2.65;;;;;;;28.36;44.55;99450.02;1758350;80;20942;-60
2022/07/25 11:17:21;;;;;;;3.45;2.50;;;;;;;28.32;44.68;99451.44;1754827;81;20993;-61
2022/07/25 11:20:01;;;;;;;5.25;2.75;;;;;;;28.31;44.77;99455.95;1737689;81;20954;-60
2022/07/25 11:22:30;;;;;;;3.62;2.80;;;;;;;28.45;44.79;99450.21;1740492;81;21559;-61
2022/07/25 11:25:01;;;;;;;7.60;3.08;;;;;;;28.51;44.89;99437.86;1770410;81;22359;-61
2022/07/25 11:27:31;;;;;;;3.22;2.70;;;;;;;28.56;44.48;99434.08;1766960;81;21515;-61
2022/07/25 11:30:14;;;;;;;5.45;2.70;;;;;;;28.47;44.72;99429.89;1767925;81;21053;-61
2022/07/25 11:35:35;;;;;;;7.15;3.12;;;;;;;28.52;44.67;99414.02;1735240;82;21032;-59
2022/07/25 11:38:02;;;;;;;3.70;2.62;;;;;;;28.64;44.71;99412.44;1741755;81;22140;-59
2022/07/25 11:40:31;;;;;;;13.00;3.40;;;;;;;28.65;44.54;99406.06;1718164;82;21164;-61
2022/07/25 11:42:59;;;;;;;5.17;3.08;;;;;;;28.61;44.59;99407.47;1749126;81;21000;-61
2022/07/25 11:45:32;;;;;;;3.98;2.90;;;;;;;28.74;44.76;99394.13;1734071;82;20997;-61
2022/07/25 11:48:12;;;;;;;7.83;2.80;;;;;;;28.95;44.73;99397.73;1711219;82;21060;-62